sensor_id;sensor_type;location;lat;lon;timestamp;pressure;altitude;pressure_sealevel;temperature;humidity
48800;BME280;34611;47.964;7.982;2023-05-28T00:06:20;96866.31;;;13.60;67.63
48800;BME280;34611;47.964;7.982;2023-05-28T00:13:21;96865.38;;;13.61;67.57
48800;BME280;34611;47.964;7.982;2023-05-28T00:20:21;96854.09;;;13.61;67.46
48800;BME280;34611;47.964;7.982;2023-05-28T00:27:21;96850.66;;;13.60;67.56
48800;BME280;34611;47.964;7.982;2023-05-28T00:34:22;96847.22;;;13.60;67.62
48800;BME280;34611;47.964;7.982;2023-05-28T00:41:23;96838.44;;;13.61;67.53
48800;BME280;34611;47.964;7.982;2023-05-28T00:48:23;96833.22;;;13.61;67.58
48800;BME280;34611;47.964;7.982;2023-05-28T00:55:24;96838.44;;;13.61;67.60
48800;BME280;34611;47.964;7.982;2023-05-28T01:02:24;96838.44;;;13.61;67.46
48800;BME280;34611;47.964;7.982;2023-05-28T01:09:25;96829.75;;;13.60;67.45
48800;BME280;34611;47.964;7.982;2023-05-28T01:16:25;96820.16;;;13.61;67.64
48800;BME280;34611;47.964;7.982;2023-05-28T01:23:27;96818.34;;;13.61;67.62
48800;BME280;34611;47.964;7.982;2023-05-28T01:30:29;96821.09;;;13.60;67.64
48800;BME280;34611;47.964;7.982;2023-05-28T01:37:29;96822.75;;;13.61;67.57
48800;BME280;34611;47.964;7.982;2023-05-28T01:44:30;96822.75;;;13.61;67.52
48800;BME280;34611;47.964;7.982;2023-05-28T01:51:32;96804.47;;;13.61;67.71
48800;BME280;34611;47.964;7.982;2023-05-28T01:58:32;96810.50;;;13.61;67.64
48800;BME280;34611;47.964;7.982;2023-05-28T02:05:33;96812.31;;;13.61;67.39
48800;BME280;34611;47.964;7.982;2023-05-28T02:12:33;96808.84;;;13.60;67.46
48800;BME280;34611;47.964;7.982;2023-05-28T02:19:33;96806.25;;;13.60;67.42
48800;BME280;34611;47.964;7.982;2023-05-28T02:26:34;96795.78;;;13.60;67.67
48800;BME280;34611;47.964;7.982;2023-05-28T02:33:34;96790.56;;;13.60;67.62
48800;BME280;34611;47.964;7.982;2023-05-28T02:40:34;96792.22;;;13.61;67.50
48800;BME280;34611;47.964;7.982;2023-05-28T02:47:35;96782.72;;;13.60;67.60
48800;BME280;34611;47.964;7.982;2023-05-28T02:54:35;96787.00;;;13.61;67.57
48800;BME280;34611;47.964;7.982;2023-05-28T03:01:36;96785.34;;;13.60;67.65
48800;BME280;34611;47.964;7.982;2023-05-28T03:08:37;96792.22;;;13.61;67.44
48800;BME280;34611;47.964;7.982;2023-05-28T03:15:37;96793.19;;;13.60;67.47
48800;BME280;34611;47.964;7.982;2023-05-28T03:22:37;96807.91;;;13.61;67.58
48800;BME280;34611;47.964;7.982;2023-05-28T03:29:38;96807.09;;;13.61;67.56
48800;BME280;34611;47.964;7.982;2023-05-28T03:36:50;96792.22;;;13.61;67.80
48800;BME280;34611;47.964;7.982;2023-05-28T03:43:51;96796.63;;;13.61;67.37
48800;BME280;34611;47.964;7.982;2023-05-28T03:50:51;96798.41;;;13.60;67.54
48800;BME280;34611;47.964;7.982;2023-05-28T03:57:53;96805.28;;;13.61;67.70
48800;BME280;34611;47.964;7.982;2023-05-28T04:04:53;96807.91;;;13.61;67.58
48800;BME280;34611;47.964;7.982;2023-05-28T04:11:54;96807.09;;;13.61;67.58
48800;BME280;34611;47.964;7.982;2023-05-28T04:18:55;96803.50;;;13.62;67.56
48800;BME280;34611;47.964;7.982;2023-05-28T04:25:56;96807.91;;;13.61;67.64
48800;BME280;34611;47.964;7.982;2023-05-28T04:32:56;96804.47;;;13.61;67.57
48800;BME280;34611;47.964;7.982;2023-05-28T04:39:57;96812.31;;;13.61;67.66
48800;BME280;34611;47.964;7.982;2023-05-28T04:46:58;96820.97;;;13.61;67.80
48800;BME280;34611;47.964;7.982;2023-05-28T04:53:59;96818.34;;;13.61;67.48
48800;BME280;34611;47.964;7.982;2023-05-28T05:00:59;96818.34;;;13.61;67.60
48800;BME280;34611;47.964;7.982;2023-05-28T05:08:01;96822.75;;;13.61;67.63
48800;BME280;34611;47.964;7.982;2023-05-28T05:15:02;96829.59;;;13.62;67.59
48800;BME280;34611;47.964;7.982;2023-05-28T05:22:04;96825.38;;;13.61;67.64
48800;BME280;34611;47.964;7.982;2023-05-28T05:29:04;96829.75;;;13.60;67.44
48800;BME280;34611;47.964;7.982;2023-05-28T05:36:05;96823.56;;;13.61;67.53
48800;BME280;34611;47.964;7.982;2023-05-28T05:43:18;96814.91;;;13.61;67.60
48800;BME280;34611;47.964;7.982;2023-05-28T05:50:18;96819.97;;;13.62;67.51
48800;BME280;34611;47.964;7.982;2023-05-28T05:57:19;96811.47;;;13.60;67.63
48800;BME280;34611;47.964;7.982;2023-05-28T06:04:20;96811.47;;;13.60;67.68
48800;BME280;34611;47.964;7.982;2023-05-28T06:11:44;96820.97;;;13.61;67.38
48800;BME280;34611;47.964;7.982;2023-05-28T06:18:44;96815.75;;;13.61;67.46
48800;BME280;34611;47.964;7.982;2023-05-28T06:25:45;96812.31;;;13.61;67.47
48800;BME280;34611;47.964;7.982;2023-05-28T06:32:45;96813.94;;;13.62;67.63
48800;BME280;34611;47.964;7.982;2023-05-28T06:39:46;96819.97;;;13.62;67.49
48800;BME280;34611;47.964;7.982;2023-05-28T06:46:49;96819.16;;;13.62;67.63
48800;BME280;34611;47.964;7.982;2023-05-28T06:53:51;96815.75;;;13.61;67.61
48800;BME280;34611;47.964;7.982;2023-05-28T07:00:56;96807.91;;;13.61;67.62
48800;BME280;34611;47.964;7.982;2023-05-28T07:08:22;96805.28;;;13.61;67.50
48800;BME280;34611;47.964;7.982;2023-05-28T07:15:22;96801.69;;;13.62;67.42
48800;BME280;34611;47.964;7.982;2023-05-28T07:22:23;96796.47;;;13.62;67.61
48800;BME280;34611;47.964;7.982;2023-05-28T07:29:26;96794.84;;;13.61;67.52
48800;BME280;34611;47.964;7.982;2023-05-28T07:36:27;96796.47;;;13.62;67.53
48800;BME280;34611;47.964;7.982;2023-05-28T07:43:27;96799.06;;;13.62;67.60
48800;BME280;34611;47.964;7.982;2023-05-28T07:50:31;96796.47;;;13.62;67.45
48800;BME280;34611;47.964;7.982;2023-05-28T07:57:55;96792.22;;;13.61;67.66
48800;BME280;34611;47.964;7.982;2023-05-28T08:04:59;96794.84;;;13.61;67.63
48800;BME280;34611;47.964;7.982;2023-05-28T08:12:01;96794.84;;;13.61;67.65
48800;BME280;34611;47.964;7.982;2023-05-28T08:19:06;96794.84;;;13.61;67.51
48800;BME280;34611;47.964;7.982;2023-05-28T08:26:07;96787.81;;;13.62;67.61
48800;BME280;34611;47.964;7.982;2023-05-28T08:33:08;96790.44;;;13.62;67.66
48800;BME280;34611;47.964;7.982;2023-05-28T08:40:09;96787.00;;;13.61;67.61
48800;BME280;34611;47.964;7.982;2023-05-28T08:47:12;96791.41;;;13.61;67.63
48800;BME280;34611;47.964;7.982;2023-05-28T08:54:25;96778.19;;;13.62;67.67
48800;BME280;34611;47.964;7.982;2023-05-28T09:01:26;96777.38;;;13.62;67.51
48800;BME280;34611;47.964;7.982;2023-05-28T09:08:47;96779.16;;;13.61;67.58
48800;BME280;34611;47.964;7.982;2023-05-28T09:15:59;96776.56;;;13.61;67.57
48800;BME280;34611;47.964;7.982;2023-05-28T09:23:01;96773.94;;;13.61;67.66
48800;BME280;34611;47.964;7.982;2023-05-28T09:30:16;96768.72;;;13.61;67.67
48800;BME280;34611;47.964;7.982;2023-05-28T09:37:17;96765.13;;;13.62;67.67
48800;BME280;34611;47.964;7.982;2023-05-28T09:44:19;96761.69;;;13.62;67.78
48800;BME280;34611;47.964;7.982;2023-05-28T09:51:19;96765.13;;;13.62;67.71
48800;BME280;34611;47.964;7.982;2023-05-28T09:58:21;96756.34;;;13.63;67.64
48800;BME280;34611;47.964;7.982;2023-05-28T10:05:25;96759.09;;;13.62;67.70
48800;BME280;34611;47.964;7.982;2023-05-28T10:12:28;96755.66;;;13.61;67.57
48800;BME280;34611;47.964;7.982;2023-05-28T10:19:28;96758.13;;;13.63;67.52
48800;BME280;34611;47.964;7.982;2023-05-28T10:26:29;96753.72;;;13.63;67.72
48800;BME280;34611;47.964;7.982;2023-05-28T10:33:30;96742.59;;;13.61;67.65
48800;BME280;34611;47.964;7.982;2023-05-28T10:40:31;96735.59;;;13.62;67.61
48800;BME280;34611;47.964;7.982;2023-05-28T10:47:32;96737.25;;;13.63;67.62
48800;BME280;34611;47.964;7.982;2023-05-28T11:01:33;96728.56;;;13.62;67.68
48800;BME280;34611;47.964;7.982;2023-05-28T11:08:44;96730.22;;;13.63;67.52
48800;BME280;34611;47.964;7.982;2023-05-28T11:15:44;96722.38;;;13.63;67.68
48800;BME280;34611;47.964;7.982;2023-05-28T11:22:45;96717.16;;;13.63;67.67
48800;BME280;34611;47.964;7.982;2023-05-28T11:29:45;96718.09;;;13.62;67.68
48800;BME280;34611;47.964;7.982;2023-05-28T11:36:46;96719.75;;;13.63;67.67
48800;BME280;34611;47.964;7.982;2023-05-28T11:43:46;96716.34;;;13.63;67.55
48800;BME280;34611;47.964;7.982;2023-05-28T11:50:47;96711.94;;;13.63;67.60
48800;BME280;34611;47.964;7.982;2023-05-28T11:57:51;96699.81;;;13.62;67.74
48800;BME280;34611;47.964;7.982;2023-05-28T12:05:00;96694.59;;;13.62;67.68
48800;BME280;34611;47.964;7.982;2023-05-28T12:12:01;96695.44;;;13.63;67.58
48800;BME280;34611;47.964;7.982;2023-05-28T12:19:02;96686.75;;;13.62;67.74
48800;BME280;34611;47.964;7.982;2023-05-28T12:26:09;96689.22;;;13.64;67.47
48800;BME280;34611;47.964;7.982;2023-05-28T12:33:13;96684.16;;;13.62;67.75
48800;BME280;34611;47.964;7.982;2023-05-28T12:40:13;96680.59;;;13.63;67.55
48800;BME280;34611;47.964;7.982;2023-05-28T12:47:13;96675.38;;;13.63;67.72
48800;BME280;34611;47.964;7.982;2023-05-28T12:54:14;96661.31;;;13.64;67.70
48800;BME280;34611;47.964;7.982;2023-05-28T13:01:14;96651.84;;;13.63;67.66
48800;BME280;34611;47.964;7.982;2023-05-28T13:08:14;96654.47;;;13.63;67.73
48800;BME280;34611;47.964;7.982;2023-05-28T13:15:15;96645.81;;;13.63;67.68
48800;BME280;34611;47.964;7.982;2023-05-28T13:22:15;96628.34;;;13.63;67.70
48800;BME280;34611;47.964;7.982;2023-05-28T13:29:15;96629.16;;;13.64;67.58
48800;BME280;34611;47.964;7.982;2023-05-28T13:36:16;96628.34;;;13.63;67.53
48800;BME280;34611;47.964;7.982;2023-05-28T13:43:16;96625.72;;;13.63;67.57
48800;BME280;34611;47.964;7.982;2023-05-28T13:50:16;96615.28;;;13.63;67.60
48800;BME280;34611;47.964;7.982;2023-05-28T13:57:16;96618.72;;;13.64;67.63
48800;BME280;34611;47.964;7.982;2023-05-28T14:04:20;96609.06;;;13.64;67.67
48800;BME280;34611;47.964;7.982;2023-05-28T14:11:20;96594.38;;;13.63;67.70
48800;BME280;34611;47.964;7.982;2023-05-28T14:18:20;96586.56;;;13.63;67.59
48800;BME280;34611;47.964;7.982;2023-05-28T14:25:21;96582.97;;;13.64;67.69
48800;BME280;34611;47.964;7.982;2023-05-28T14:32:21;96580.34;;;13.64;67.80
48800;BME280;34611;47.964;7.982;2023-05-28T14:39:21;96570.88;;;13.63;67.63
48800;BME280;34611;47.964;7.982;2023-05-28T14:46:21;96572.50;;;13.64;67.67
48800;BME280;34611;47.964;7.982;2023-05-28T14:53:22;96561.25;;;13.64;67.72
48800;BME280;34611;47.964;7.982;2023-05-28T15:00:22;96558.63;;;13.64;67.63
48800;BME280;34611;47.964;7.982;2023-05-28T15:07:22;96547.22;;;13.65;67.75
48800;BME280;34611;47.964;7.982;2023-05-28T15:14:23;96535.94;;;13.64;67.53
48800;BME280;34611;47.964;7.982;2023-05-28T15:21:23;96537.59;;;13.65;67.73
48800;BME280;34611;47.964;7.982;2023-05-28T15:28:23;96520.28;;;13.64;67.58
48800;BME280;34611;47.964;7.982;2023-05-28T15:35:24;96526.34;;;13.65;67.74
48800;BME280;34611;47.964;7.982;2023-05-28T15:42:24;96528.09;;;13.64;67.90
48800;BME280;34611;47.964;7.982;2023-05-28T15:49:25;96521.13;;;13.65;67.68
48800;BME280;34611;47.964;7.982;2023-05-28T15:56:25;96520.28;;;13.64;67.65
48800;BME280;34611;47.964;7.982;2023-05-28T16:03:26;96519.47;;;13.64;67.75
48800;BME280;34611;47.964;7.982;2023-05-28T16:10:26;96526.34;;;13.65;67.60
48800;BME280;34611;47.964;7.982;2023-05-28T16:17:27;96524.53;;;13.65;67.64
48800;BME280;34611;47.964;7.982;2023-05-28T16:24:28;96521.91;;;13.65;67.74
48800;BME280;34611;47.964;7.982;2023-05-28T16:31:29;96529.75;;;13.65;67.67
48800;BME280;34611;47.964;7.982;2023-05-28T16:38:29;96522.88;;;13.64;67.61
48800;BME280;34611;47.964;7.982;2023-05-28T16:45:29;96532.38;;;13.65;67.84
48800;BME280;34611;47.964;7.982;2023-05-28T16:52:30;96536.78;;;13.65;67.78
48800;BME280;34611;47.964;7.982;2023-05-28T16:59:30;96533.19;;;13.66;67.65
48800;BME280;34611;47.964;7.982;2023-05-28T17:06:30;96537.59;;;13.65;67.78
48800;BME280;34611;47.964;7.982;2023-05-28T17:13:31;96541.16;;;13.64;67.75
48800;BME280;34611;47.964;7.982;2023-05-28T17:20:31;96548.03;;;13.65;67.80
48800;BME280;34611;47.964;7.982;2023-05-28T17:27:37;96550.66;;;13.65;67.79
48800;BME280;34611;47.964;7.982;2023-05-28T17:34:37;96558.50;;;13.65;67.83
48800;BME280;34611;47.964;7.982;2023-05-28T17:41:38;96574.16;;;13.65;67.75
48800;BME280;34611;47.964;7.982;2023-05-28T17:48:38;96575.78;;;13.66;67.74
48800;BME280;34611;47.964;7.982;2023-05-28T17:55:38;96585.41;;;13.66;67.73
48800;BME280;34611;47.964;7.982;2023-05-28T18:02:38;96595.06;;;13.65;67.88
48800;BME280;34611;47.964;7.982;2023-05-28T18:09:39;96593.25;;;13.66;67.85
48800;BME280;34611;47.964;7.982;2023-05-28T18:16:40;96600.28;;;13.65;67.68
48800;BME280;34611;47.964;7.982;2023-05-28T18:23:41;96607.13;;;13.66;67.79
48800;BME280;34611;47.964;7.982;2023-05-28T18:30:42;96606.31;;;13.66;67.80
48800;BME280;34611;47.964;7.982;2023-05-28T18:37:42;96607.97;;;13.67;67.71
48800;BME280;34611;47.964;7.982;2023-05-28T18:44:42;96610.59;;;13.67;67.81
48800;BME280;34611;47.964;7.982;2023-05-28T18:51:44;96616.75;;;13.66;67.86
48800;BME280;34611;47.964;7.982;2023-05-28T18:58:45;96628.03;;;13.66;67.53
48800;BME280;34611;47.964;7.982;2023-05-28T19:05:45;96631.63;;;13.65;67.73
48800;BME280;34611;47.964;7.982;2023-05-28T19:12:46;96632.28;;;13.67;67.86
48800;BME280;34611;47.964;7.982;2023-05-28T19:19:46;96639.31;;;13.67;67.88
48800;BME280;34611;47.964;7.982;2023-05-28T19:26:46;96648.91;;;13.66;67.65
48800;BME280;34611;47.964;7.982;2023-05-28T19:33:48;96652.38;;;13.67;67.82
48800;BME280;34611;47.964;7.982;2023-05-28T19:40:48;96655.00;;;13.67;67.85
48800;BME280;34611;47.964;7.982;2023-05-28T19:47:49;96663.78;;;13.66;67.85
48800;BME280;34611;47.964;7.982;2023-05-28T19:54:49;96678.50;;;13.67;67.86
48800;BME280;34611;47.964;7.982;2023-05-28T20:01:50;96672.44;;;13.66;67.73
48800;BME280;34611;47.964;7.982;2023-05-28T20:08:50;96681.09;;;13.67;67.76
48800;BME280;34611;47.964;7.982;2023-05-28T20:15:50;96693.31;;;13.66;67.74
48800;BME280;34611;47.964;7.982;2023-05-28T20:22:52;96690.56;;;13.68;67.92
48800;BME280;34611;47.964;7.982;2023-05-28T20:29:54;96695.94;;;13.66;67.57
48800;BME280;34611;47.964;7.982;2023-05-28T20:36:54;96716.84;;;13.66;67.87
48800;BME280;34611;47.964;7.982;2023-05-28T20:43:54;96715.06;;;13.67;67.90
48800;BME280;34611;47.964;7.982;2023-05-28T20:50:55;96722.06;;;13.66;67.85
48800;BME280;34611;47.964;7.982;2023-05-28T20:57:55;96728.13;;;13.67;67.79
48800;BME280;34611;47.964;7.982;2023-05-28T21:04:55;96734.16;;;13.67;67.86
48800;BME280;34611;47.964;7.982;2023-05-28T21:11:55;96734.16;;;13.67;67.83
48800;BME280;34611;47.964;7.982;2023-05-28T21:18:56;96739.38;;;13.67;67.72
48800;BME280;34611;47.964;7.982;2023-05-28T21:25:56;96737.59;;;13.68;67.89
48800;BME280;34611;47.964;7.982;2023-05-28T21:32:56;96734.16;;;13.67;67.90
48800;BME280;34611;47.964;7.982;2023-05-28T21:39:56;96739.38;;;13.67;68.05
48800;BME280;34611;47.964;7.982;2023-05-28T21:46:57;96732.50;;;13.66;67.92
48800;BME280;34611;47.964;7.982;2023-05-28T21:53:57;96731.56;;;13.67;67.90
48800;BME280;34611;47.964;7.982;2023-05-28T22:00:57;96738.41;;;13.68;67.73
48800;BME280;34611;47.964;7.982;2023-05-28T22:07:57;96734.97;;;13.68;67.76
48800;BME280;34611;47.964;7.982;2023-05-28T22:14:58;96732.50;;;13.66;67.93
48800;BME280;34611;47.964;7.982;2023-05-28T22:21:58;96740.19;;;13.68;67.89
48800;BME280;34611;47.964;7.982;2023-05-28T22:28:59;96733.19;;;13.68;67.76
48800;BME280;34611;47.964;7.982;2023-05-28T22:35:59;96734.16;;;13.67;67.92
48800;BME280;34611;47.964;7.982;2023-05-28T22:43:00;96727.13;;;13.68;67.75
48800;BME280;34611;47.964;7.982;2023-05-28T22:50:00;96723.72;;;13.67;67.76
48800;BME280;34611;47.964;7.982;2023-05-28T22:57:00;96730.56;;;13.68;67.90
48800;BME280;34611;47.964;7.982;2023-05-28T23:04:02;96724.53;;;13.68;67.90
48800;BME280;34611;47.964;7.982;2023-05-28T23:11:02;96718.50;;;13.67;67.88
48800;BME280;34611;47.964;7.982;2023-05-28T23:18:02;96725.34;;;13.68;67.79
48800;BME280;34611;47.964;7.982;2023-05-28T23:25:03;96726.31;;;13.67;67.85
48800;BME280;34611;47.964;7.982;2023-05-28T23:32:04;96725.34;;;13.68;67.86
48800;BME280;34611;47.964;7.982;2023-05-28T23:39:05;96713.28;;;13.67;67.92
48800;BME280;34611;47.964;7.982;2023-05-28T23:46:05;96708.84;;;13.68;67.87
48800;BME280;34611;47.964;7.982;2023-05-28T23:53:06;96713.28;;;13.67;67.91
